Time;durP1;ratioP1;P1;durP2;ratioP2;P2;SDS_P1;SDS_P2;PMS_P1;PMS_P2;Temp;Humidity;BMP_temperature;BMP_pressure;BME280_temperature;BME280_humidity;BME280_pressure;Samples;Min_cycle;Max_cycle;Signal;HPM_P1;HPM_P2
2023/04/04 00:01:20;;;;;;;2.45;1.48;;;;;;;-1.88;100.00;103163.97;5061259;28;20188;-46
2023/04/04 00:03:50;;;;;;;2.45;1.70;;;;;;;-2.04;99.72;103157.06;5055763;28;20495;-47
2023/04/04 00:06:17;;;;;;;3.53;2.00;;;;;;;-2.10;100.00;103160.28;5053351;28;20712;-45
2023/04/04 00:08:42;;;;;;;4.05;1.95;;;;;;;-1.90;100.00;103165.66;5058776;28;20210;-47
2023/04/04 00:11:07;;;;;;;4.38;2.00;;;;;;;-1.78;100.00;103161.00;5062238;28;20170;-46
2023/04/04 00:13:33;;;;;;;4.63;1.98;;;;;;;-1.78;100.00;103153.13;5060065;28;20197;-46
2023/04/04 00:15:59;;;;;;;2.92;2.55;;;;;;;-1.93;100.00;103149.72;5054868;28;20563;-47
2023/04/04 00:18:25;;;;;;;4.25;2.05;;;;;;;-1.88;100.00;103146.50;5056874;28;20644;-47
2023/04/04 00:20:50;;;;;;;3.80;2.25;;;;;;;-1.73;100.00;103155.97;5057376;28;20187;-46
2023/04/04 00:23:16;;;;;;;4.95;2.30;;;;;;;-1.67;100.00;103138.78;5054437;28;20185;-44
2023/04/04 00:25:42;;;;;;;4.93;2.28;;;;;;;-1.64;100.00;103134.50;5057599;28;20180;-47
2023/04/04 00:28:08;;;;;;;4.40;2.20;;;;;;;-1.64;100.00;103129.25;5060992;28;20688;-48
2023/04/04 00:30:34;;;;;;;3.03;2.00;;;;;;;-1.87;100.00;103122.03;5059320;28;20175;-48
2023/04/04 00:33:00;;;;;;;4.22;2.10;;;;;;;-2.00;100.00;103134.47;5055515;28;20199;-51
2023/04/04 00:35:26;;;;;;;4.25;1.80;;;;;;;-1.84;100.00;103125.63;5051352;28;20183;-53
2023/04/04 00:37:52;;;;;;;4.32;2.25;;;;;;;-1.84;100.00;103117.75;5053908;28;20199;-52
2023/04/04 00:40:18;;;;;;;3.78;2.50;;;;;;;-1.99;100.00;103129.31;5055670;28;20190;-52
2023/04/04 00:42:44;;;;;;;8.85;2.83;;;;;;;-2.25;100.00;103121.81;5050094;28;20207;-52
2023/04/04 00:45:10;;;;;;;4.50;2.05;;;;;;;-2.11;100.00;103120.81;5063958;28;20175;-54
2023/04/04 00:47:36;;;;;;;4.90;1.90;;;;;;;-1.98;100.00;103120.59;5061974;28;20290;-52
2023/04/04 00:50:02;;;;;;;5.70;2.08;;;;;;;-2.07;100.00;103112.25;5054538;28;20539;-53
2023/04/04 00:52:28;;;;;;;4.45;1.85;;;;;;;-2.08;100.00;103118.31;5049912;28;20194;-53
2023/04/04 00:54:55;;;;;;;6.82;2.30;;;;;;;-1.98;100.00;103123.22;5056457;28;20190;-50
2023/04/04 00:57:21;;;;;;;4.15;1.88;;;;;;;-1.99;100.00;103123.13;5058291;28;20361;-51
2023/04/04 00:59:47;;;;;;;4.40;2.47;;;;;;;-2.14;100.00;103120.66;5053635;28;20263;-53
2023/04/04 01:02:12;;;;;;;4.60;2.33;;;;;;;-2.30;100.00;103105.81;5049978;28;20643;-53
2023/04/04 01:04:38;;;;;;;7.28;2.53;;;;;;;-2.34;100.00;103107.41;5049629;28;20237;-51
2023/04/04 01:07:03;;;;;;;3.50;2.03;;;;;;;-2.20;100.00;103105.47;5058715;28;20700;-52
2023/04/04 01:09:30;;;;;;;5.78;2.22;;;;;;;-2.17;100.00;103105.63;5054236;28;20196;-50
2023/04/04 01:11:56;;;;;;;3.53;2.00;;;;;;;-2.08;100.00;103102.56;5054321;28;20929;-49
2023/04/04 01:14:23;;;;;;;4.78;1.98;;;;;;;-2.20;100.00;103100.22;5055282;28;20210;-48
2023/04/04 01:16:49;;;;;;;3.67;1.73;;;;;;;-2.21;100.00;103101.03;5061909;28;20245;-48
2023/04/04 01:19:23;;;;;;;4.47;2.13;;;;;;;-2.19;100.00;103106.38;5050232;28;20198;-48
2023/04/04 01:21:51;;;;;;;5.03;2.10;;;;;;;-2.20;100.00;103094.09;5044610;28;20178;-48
2023/04/04 01:24:20;;;;;;;2.50;1.90;;;;;;;-2.20;100.00;103097.59;5055921;28;20595;-50
2023/04/04 01:26:53;;;;;;;3.35;1.70;;;;;;;-2.23;100.00;103101.78;5056130;28;20201;-50
2023/04/04 01:29:19;;;;;;;4.57;2.00;;;;;;;-2.16;100.00;103101.28;5051342;28;20210;-50
2023/04/04 01:31:57;;;;;;;7.25;2.42;;;;;;;-2.19;100.00;103102.00;5051200;28;20175;-48
2023/04/04 01:34:38;;;;;;;4.50;1.83;;;;;;;-2.29;100.00;103103.28;5058161;28;20202;-50
2023/04/04 01:37:13;;;;;;;6.50;1.70;;;;;;;-2.31;100.00;103093.53;5052628;28;20218;-49
2023/04/04 01:39:46;;;;;;;3.60;1.60;;;;;;;-2.22;100.00;103086.13;5050984;28;20558;-51
2023/04/04 01:42:14;;;;;;;3.47;1.50;;;;;;;-2.20;100.00;103099.34;5045673;28;20190;-51
2023/04/04 01:44:41;;;;;;;4.05;1.85;;;;;;;-2.15;100.00;103088.22;5058539;28;20177;-46
2023/04/04 01:47:07;;;;;;;2.22;1.52;;;;;;;-2.15;100.00;103090.84;5058731;28;20729;-47
2023/04/04 01:49:34;;;;;;;2.15;1.60;;;;;;;-2.23;100.00;103091.28;5060622;28;20215;-47
2023/04/04 01:52:02;;;;;;;4.13;1.75;;;;;;;-2.17;100.00;103087.25;5055945;28;20195;-48
2023/04/04 01:54:27;;;;;;;3.35;1.58;;;;;;;-2.13;100.00;103081.31;5050051;28;20182;-47
2023/04/04 01:56:53;;;;;;;6.32;1.90;;;;;;;-2.37;100.00;103082.72;5057099;28;20902;-46
2023/04/04 01:59:19;;;;;;;7.10;1.90;;;;;;;-2.26;100.00;103078.91;5051994;28;20632;-45
2023/04/04 02:01:45;;;;;;;3.30;1.33;;;;;;;-2.20;100.00;103078.34;5058466;28;20218;-46
2023/04/04 02:04:11;;;;;;;4.35;1.83;;;;;;;-2.28;100.00;103070.06;5061106;28;20202;-46
2023/04/04 02:06:39;;;;;;;3.05;1.40;;;;;;;-2.31;100.00;103072.53;5060335;28;20349;-47
2023/04/04 02:09:05;;;;;;;3.63;1.63;;;;;;;-2.19;100.00;103072.25;5051982;28;20198;-46
2023/04/04 02:11:31;;;;;;;3.80;1.60;;;;;;;-2.18;100.00;103064.44;5052872;28;20237;-45
2023/04/04 02:13:57;;;;;;;3.97;1.45;;;;;;;-2.25;100.00;103050.91;5054041;28;20194;-47
2023/04/04 02:16:25;;;;;;;2.83;1.40;;;;;;;-2.20;100.00;103068.72;5036528;28;20199;-47
2023/04/04 02:18:51;;;;;;;6.15;1.65;;;;;;;-2.09;100.00;103058.75;5051456;28;20327;-48
2023/04/04 02:21:17;;;;;;;3.63;1.50;;;;;;;-2.08;100.00;103066.72;5053546;28;20175;-49
2023/04/04 02:23:42;;;;;;;4.45;1.58;;;;;;;-2.02;100.00;103058.22;5050995;28;20179;-47
2023/04/04 02:26:08;;;;;;;2.35;1.75;;;;;;;-2.09;100.00;103071.88;5035771;28;20599;-48
2023/04/04 02:28:36;;;;;;;2.60;1.70;;;;;;;-2.00;100.00;103074.06;5048994;28;20203;-47
2023/04/04 02:31:01;;;;;;;2.30;1.38;;;;;;;-2.04;100.00;103069.47;5058001;28;20190;-47
2023/04/04 02:33:28;;;;;;;3.47;1.88;;;;;;;-1.99;100.00;103081.09;5054912;28;20603;-47
2023/04/04 02:35:58;;;;;;;2.47;1.55;;;;;;;-1.96;100.00;103070.78;5049259;28;20184;-46
2023/04/04 02:38:25;;;;;;;4.30;2.10;;;;;;;-1.93;100.00;103081.41;5044728;28;20209;-48
2023/04/04 02:40:51;;;;;;;5.00;1.92;;;;;;;-2.07;100.00;103073.75;5034080;28;20188;-46
2023/04/04 02:43:17;;;;;;;3.28;1.80;;;;;;;-2.15;100.00;103085.59;5052185;28;20178;-48
2023/04/04 02:45:43;;;;;;;4.35;1.95;;;;;;;-2.04;100.00;103074.72;5050440;28;20194;-47
2023/04/04 02:48:38;;;;;;;2.60;1.42;;;;;;;-2.14;100.00;103070.78;5047419;28;20753;-47
2023/04/04 02:51:03;;;;;;;3.80;2.05;;;;;;;-2.28;100.00;103070.06;5058716;28;20340;-49
2023/04/04 02:53:30;;;;;;;4.38;1.95;;;;;;;-2.35;100.00;103066.22;5051662;28;20677;-46
2023/04/04 02:56:02;;;;;;;4.18;1.70;;;;;;;-2.28;100.00;103057.81;5050680;28;20324;-47
2023/04/04 02:58:30;;;;;;;4.50;2.20;;;;;;;-2.29;100.00;103053.41;5046194;28;20165;-46
2023/04/04 03:00:56;;;;;;;2.90;2.00;;;;;;;-2.29;100.00;103057.75;5055071;28;20197;-46
2023/04/04 03:03:26;;;;;;;5.32;2.03;;;;;;;-2.19;100.00;103052.13;5050407;28;20629;-47
2023/04/04 03:05:52;;;;;;;5.85;1.98;;;;;;;-2.19;100.00;103041.63;5042677;28;20295;-46
2023/04/04 03:08:18;;;;;;;4.38;1.83;;;;;;;-2.12;100.00;103038.50;5055164;28;20195;-46
2023/04/04 03:10:45;;;;;;;5.30;1.95;;;;;;;-2.09;100.00;103033.38;5055352;28;20214;-47
2023/04/04 03:13:11;;;;;;;4.95;2.00;;;;;;;-2.12;100.00;103040.19;5050169;28;20167;-47
2023/04/04 03:15:36;;;;;;;4.10;1.90;;;;;;;-2.08;100.00;103048.34;5056186;28;20201;-48
2023/04/04 03:18:02;;;;;;;7.25;2.15;;;;;;;-2.15;100.00;103043.56;5063511;28;20220;-47
2023/04/04 03:20:30;;;;;;;3.40;1.83;;;;;;;-2.15;100.00;103047.94;5061036;28;20190;-47
2023/04/04 03:22:57;;;;;;;3.78;2.20;;;;;;;-2.07;100.00;103049.22;5054984;28;20191;-48
2023/04/04 03:25:22;;;;;;;6.28;2.00;;;;;;;-2.13;100.00;103049.81;5059361;28;20193;-48
2023/04/04 03:27:48;;;;;;;6.35;2.15;;;;;;;-2.17;100.00;103055.72;5058407;28;20210;-48
2023/04/04 03:30:20;;;;;;;3.47;1.80;;;;;;;-2.10;100.00;103052.59;5061706;28;20175;-47
2023/04/04 03:32:46;;;;;;;3.80;2.00;;;;;;;-2.08;100.00;103053.59;5056025;28;20237;-46
2023/04/04 03:35:12;;;;;;;3.78;1.58;;;;;;;-2.09;100.00;103054.38;5047964;28;20182;-46
2023/04/04 03:37:39;;;;;;;3.65;1.80;;;;;;;-2.33;100.00;103048.81;5062874;28;20207;-48
2023/04/04 03:40:06;;;;;;;2.30;2.00;;;;;;;-2.44;100.00;103051.72;5062535;28;20222;-49
2023/04/04 03:42:33;;;;;;;3.92;1.83;;;;;;;-2.56;100.00;103047.66;5051403;28;20604;-46
2023/04/04 03:44:59;;;;;;;6.32;2.50;;;;;;;-2.49;100.00;103047.16;5056012;28;20189;-49
2023/04/04 03:47:30;;;;;;;5.35;2.17;;;;;;;-2.34;100.00;103043.47;5055145;28;20235;-47
2023/04/04 03:49:57;;;;;;;3.38;2.00;;;;;;;-2.35;100.00;103046.94;5049678;28;20217;-48
2023/04/04 03:52:23;;;;;;;2.97;1.70;;;;;;;-2.22;100.00;103043.22;5054388;28;20187;-47
2023/04/04 03:54:48;;;;;;;5.32;2.00;;;;;;;-2.18;100.00;103051.31;5061354;28;20976;-46
2023/04/04 03:57:14;;;;;;;3.42;2.17;;;;;;;-2.20;100.00;103047.72;5056934;28;20245;-48
2023/04/04 03:59:41;;;;;;;2.67;1.88;;;;;;;-2.17;100.00;103050.47;5055247;28;20259;-47
2023/04/04 04:02:07;;;;;;;3.38;2.15;;;;;;;-2.11;100.00;103053.41;5058486;28;20457;-47
2023/04/04 04:04:32;;;;;;;4.55;1.70;;;;;;;-2.07;100.00;103050.13;5055546;28;20221;-46
2023/04/04 04:06:58;;;;;;;3.47;1.92;;;;;;;-2.20;100.00;103046.81;5062816;28;20195;-48
2023/04/04 04:09:23;;;;;;;3.28;1.70;;;;;;;-2.25;100.00;103053.53;5054443;28;20207;-50
2023/04/04 04:11:49;;;;;;;7.10;2.20;;;;;;;-2.24;100.00;103047.47;5052641;28;20164;-49
2023/04/04 04:14:15;;;;;;;3.50;1.83;;;;;;;-2.22;100.00;103051.09;5052422;28;20225;-50
2023/04/04 04:16:41;;;;;;;3.15;1.92;;;;;;;-2.35;100.00;103045.22;5051452;28;20204;-53
2023/04/04 04:19:09;;;;;;;6.22;2.40;;;;;;;-2.68;100.00;103035.63;5051136;28;20179;-50
2023/04/04 04:21:38;;;;;;;3.92;2.08;;;;;;;-2.63;100.00;103032.41;5051545;28;20221;-48
2023/04/04 04:24:05;;;;;;;4.63;2.00;;;;;;;-2.52;100.00;103023.34;5052564;28;20164;-48
2023/04/04 04:26:30;;;;;;;1.88;1.40;;;;;;;-2.42;100.00;103031.72;5050772;28;20191;-49
2023/04/04 04:28:56;;;;;;;3.42;2.10;;;;;;;-2.46;100.00;103030.66;5050431;28;20195;-51
2023/04/04 04:31:28;;;;;;;2.60;2.05;;;;;;;-2.42;100.00;103037.84;5051099;28;20175;-52
2023/04/04 04:33:55;;;;;;;4.22;1.83;;;;;;;-2.45;100.00;103034.16;5050690;28;20172;-50
2023/04/04 04:36:26;;;;;;;3.80;1.88;;;;;;;-2.37;100.00;103036.34;5050505;28;20203;-50
2023/04/04 04:39:12;;;;;;;3.85;1.73;;;;;;;-2.47;100.00;103030.56;5050244;28;20631;-53
2023/04/04 04:41:43;;;;;;;4.05;2.15;;;;;;;-2.65;100.00;103033.16;5050419;28;20179;-48
2023/04/04 04:44:10;;;;;;;4.57;2.05;;;;;;;-2.67;100.00;103026.94;5050544;28;20178;-46
2023/04/04 04:46:35;;;;;;;3.80;1.77;;;;;;;-2.56;100.00;103037.16;5060299;28;20583;-46
2023/04/04 04:49:07;;;;;;;2.72;1.98;;;;;;;-2.48;100.00;103032.28;5054717;28;20210;-45
2023/04/04 04:51:32;;;;;;;4.43;2.05;;;;;;;-2.50;100.00;103033.94;5039668;28;20560;-50
2023/04/04 04:53:58;;;;;;;5.47;2.20;;;;;;;-2.54;100.00;103025.00;5060359;28;20271;-47
2023/04/04 04:56:26;;;;;;;2.63;1.70;;;;;;;-2.46;100.00;103022.78;5053698;28;20344;-46
2023/04/04 04:58:56;;;;;;;3.03;1.90;;;;;;;-2.43;100.00;103014.16;5050823;28;20187;-50
2023/04/04 05:01:25;;;;;;;3.55;1.95;;;;;;;-2.50;100.00;103026.97;5058414;28;20186;-46
2023/04/04 05:03:52;;;;;;;4.03;1.60;;;;;;;-2.40;100.00;103028.34;5048386;28;20190;-44
2023/04/04 05:06:23;;;;;;;2.90;1.80;;;;;;;-2.39;100.00;103029.22;5057167;28;20572;-45
2023/04/04 05:08:50;;;;;;;4.72;1.85;;;;;;;-2.34;100.00;103039.16;5064762;28;20205;-45
2023/04/04 05:11:25;;;;;;;3.95;2.00;;;;;;;-2.29;100.00;103031.50;5056602;28;20850;-46
2023/04/04 05:13:51;;;;;;;4.50;2.17;;;;;;;-2.30;100.00;103046.38;5061151;28;20175;-46
2023/04/04 05:16:19;;;;;;;1.88;1.58;;;;;;;-2.16;100.00;103043.53;5051848;28;20202;-46
2023/04/04 05:18:46;;;;;;;5.03;2.40;;;;;;;-1.91;100.00;103049.13;5052437;28;20166;-45
2023/04/04 05:21:12;;;;;;;5.13;2.33;;;;;;;-1.67;100.00;103038.91;5047874;28;20263;-44
2023/04/04 05:23:38;;;;;;;3.92;2.80;;;;;;;-1.56;100.00;103030.63;5052232;28;20262;-46
2023/04/04 05:26:05;;;;;;;6.80;2.45;;;;;;;-1.78;100.00;103037.50;5051623;28;20565;-46
2023/04/04 05:28:34;;;;;;;5.15;2.50;;;;;;;-1.81;100.00;103031.22;5059338;28;20223;-45
2023/04/04 05:31:02;;;;;;;9.60;4.90;;;;;;;-1.59;100.00;103038.38;5054912;28;20630;-46
2023/04/04 05:33:30;;;;;;;11.90;7.57;;;;;;;-1.47;100.00;103034.59;5049817;28;20745;-44
2023/04/04 05:36:11;;;;;;;7.00;5.22;;;;;;;-1.28;100.00;103035.44;5053711;28;20211;-44
2023/04/04 05:38:42;;;;;;;7.20;4.22;;;;;;;-0.98;100.00;103043.84;5054999;28;20171;-44
2023/04/04 05:41:09;;;;;;;11.15;3.40;;;;;;;-0.81;100.00;103039.31;5056224;28;20183;-43
2023/04/04 05:43:35;;;;;;;3.53;2.67;;;;;;;-0.65;100.00;103031.25;5050677;28;20187;-44
2023/04/04 05:46:07;;;;;;;5.47;2.05;;;;;;;-0.55;100.00;103035.19;5036769;28;20652;-43
2023/04/04 05:48:39;;;;;;;6.97;2.40;;;;;;;-0.30;100.00;103033.59;5055962;28;20202;-44
2023/04/04 05:51:04;;;;;;;5.55;2.65;;;;;;;-0.07;100.00;103026.66;5056768;28;20193;-45
2023/04/04 05:53:46;;;;;;;4.40;2.20;;;;;;;0.56;100.00;103024.75;5045954;28;20216;-43
2023/04/04 05:56:16;;;;;;;5.72;2.10;;;;;;;1.13;100.00;103016.31;5052594;28;20700;-44
2023/04/04 05:58:45;;;;;;;4.40;2.03;;;;;;;1.56;100.00;103012.53;5055107;28;20175;-45
2023/04/04 06:01:11;;;;;;;3.95;2.40;;;;;;;1.95;100.00;103004.13;5047868;28;20190;-45
2023/04/04 06:03:38;;;;;;;6.28;2.30;;;;;;;2.27;100.00;103004.25;5050311;28;20203;-45
2023/04/04 06:06:08;;;;;;;4.40;2.03;;;;;;;2.42;99.67;102994.13;5048811;28;20231;-47
2023/04/04 06:08:34;;;;;;;5.97;2.30;;;;;;;2.79;97.91;102992.56;5061729;28;20191;-42
2023/04/04 06:10:59;;;;;;;6.20;2.58;;;;;;;2.93;95.87;102986.78;5050445;28;20186;-45
2023/04/04 06:13:25;;;;;;;4.47;3.03;;;;;;;3.23;93.88;102976.13;5049583;28;20326;-44
2023/04/04 06:15:55;;;;;;;4.00;2.33;;;;;;;3.53;92.05;102975.16;5052390;28;20213;-45
2023/04/04 06:18:21;;;;;;;8.55;2.53;;;;;;;3.77;90.32;102962.50;5055720;28;20179;-46
2023/04/04 06:20:46;;;;;;;6.45;2.05;;;;;;;3.80;88.00;102956.38;5051661;28;20179;-48
2023/04/04 06:23:14;;;;;;;4.30;1.90;;;;;;;4.00;86.74;102946.22;5052705;28;20187;-45
2023/04/04 06:25:43;;;;;;;6.38;2.85;;;;;;;4.35;84.76;102939.03;5052419;28;20195;-46
2023/04/04 06:28:10;;;;;;;7.85;2.35;;;;;;;4.57;82.80;102929.81;5056212;28;20209;-50
2023/04/04 06:30:36;;;;;;;3.75;1.75;;;;;;;4.62;80.77;102927.22;5049163;28;20183;-47
2023/04/04 06:33:04;;;;;;;4.53;2.00;;;;;;;4.95;79.18;102903.06;5049677;28;20183;-48
2023/04/04 06:35:31;;;;;;;3.30;1.70;;;;;;;4.68;76.86;102890.16;5055786;28;20703;-48
2023/04/04 06:37:59;;;;;;;2.67;1.63;;;;;;;4.75;75.20;102878.81;5056855;28;20323;-46
2023/04/04 06:40:25;;;;;;;3.10;1.80;;;;;;;5.00;73.49;102876.59;5058654;28;20296;-47
2023/04/04 06:42:53;;;;;;;6.55;1.42;;;;;;;5.04;72.20;102866.03;5057143;28;20266;-45
2023/04/04 06:45:26;;;;;;;1.83;1.40;;;;;;;5.16;71.25;102852.97;5054206;28;20642;-43
2023/04/04 06:47:53;;;;;;;3.45;1.60;;;;;;;5.47;70.08;102840.19;5056040;28;20203;-51
2023/04/04 06:50:21;;;;;;;1.55;1.13;;;;;;;5.39;68.99;102831.19;5049280;28;20194;-46
2023/04/04 06:52:48;;;;;;;1.70;1.10;;;;;;;5.83;68.17;102841.56;5058867;28;20226;-44
2023/04/04 06:55:14;;;;;;;2.90;1.50;;;;;;;5.85;67.29;102829.19;5060705;28;20236;-44
2023/04/04 06:57:40;;;;;;;3.95;1.67;;;;;;;6.15;66.53;102827.84;5059380;28;20708;-49
2023/04/04 07:00:08;;;;;;;2.60;1.50;;;;;;;5.97;65.63;102816.09;5054936;28;20167;-45
2023/04/04 07:02:33;;;;;;;2.67;1.58;;;;;;;5.77;65.13;102809.56;5054594;28;20215;-46
2023/04/04 07:04:59;;;;;;;4.75;1.90;;;;;;;5.10;65.73;102807.72;5060954;28;20198;-44
2023/04/04 07:07:25;;;;;;;2.38;1.52;;;;;;;5.31;66.37;102819.53;5060149;28;20271;-47
2023/04/04 07:09:50;;;;;;;3.72;1.30;;;;;;;4.95;66.42;102820.75;5059412;28;20191;-48
2023/04/04 07:12:16;;;;;;;3.95;1.40;;;;;;;4.94;66.64;102819.84;5062563;28;20187;-45
2023/04/04 07:14:41;;;;;;;2.55;1.20;;;;;;;5.60;66.51;102835.03;5061825;28;20618;-46
2023/04/04 07:17:07;;;;;;;5.32;1.40;;;;;;;5.36;65.90;102813.44;5066831;28;20228;-48
2023/04/04 07:19:33;;;;;;;3.90;1.40;;;;;;;5.08;65.62;102805.91;5058578;28;20281;-47
2023/04/04 07:21:58;;;;;;;4.25;1.63;;;;;;;5.05;65.68;102801.44;5060815;28;20598;-44
2023/04/04 07:24:24;;;;;;;4.88;1.27;;;;;;;5.12;65.99;102815.72;5061596;28;20186;-45
2023/04/04 07:26:49;;;;;;;3.45;1.02;;;;;;;5.35;65.53;102816.06;5057925;28;20268;-50
2023/04/04 07:29:15;;;;;;;3.50;1.10;;;;;;;5.89;64.85;102816.84;5060127;28;20202;-43
2023/04/04 07:31:40;;;;;;;3.85;1.50;;;;;;;6.08;63.66;102802.94;5065933;28;21341;-44
2023/04/04 07:34:06;;;;;;;3.08;1.00;;;;;;;5.56;63.83;102794.22;5058052;28;20355;-48
2023/04/04 07:36:32;;;;;;;2.67;1.10;;;;;;;6.12;63.57;102796.78;5062564;28;20230;-47
2023/04/04 07:38:57;;;;;;;1.98;0.95;;;;;;;6.24;62.22;102774.72;5058197;28;20552;-49
2023/04/04 07:41:24;;;;;;;2.17;1.05;;;;;;;6.47;61.75;102774.97;5065108;28;20178;-46
2023/04/04 07:43:50;;;;;;;5.60;0.90;;;;;;;5.72;61.17;102758.97;5058643;28;20179;-50
2023/04/04 07:46:16;;;;;;;1.77;1.00;;;;;;;5.37;60.33;102762.03;5061872;28;20290;-44
2023/04/04 07:48:42;;;;;;;3.05;1.23;;;;;;;5.54;60.27;102772.94;5060099;28;20692;-47
2023/04/04 07:51:08;;;;;;;2.63;0.90;;;;;;;5.66;60.32;102781.94;5057918;28;20214;-47
2023/04/04 07:53:33;;;;;;;1.92;1.05;;;;;;;6.28;58.99;102775.66;5058773;28;20175;-49
2023/04/04 07:56:05;;;;;;;1.98;0.90;;;;;;;5.70;58.53;102763.38;5054032;28;20175;-48
2023/04/04 07:58:32;;;;;;;1.35;0.93;;;;;;;5.57;58.29;102759.69;5056986;28;20187;-47
2023/04/04 08:00:58;;;;;;;2.00;1.00;;;;;;;6.22;56.12;102727.66;5062654;28;20198;-48
2023/04/04 08:03:24;;;;;;;1.40;0.80;;;;;;;6.14;55.74;102720.50;5054576;28;20207;-49
2023/04/04 08:05:50;;;;;;;2.28;0.90;;;;;;;6.92;55.28;102730.06;5051359;28;20190;-47
2023/04/04 08:08:15;;;;;;;3.47;1.00;;;;;;;7.33;54.69;102722.34;5056209;28;20215;-47
2023/04/04 08:10:41;;;;;;;1.77;0.90;;;;;;;6.56;53.44;102705.81;5062316;28;21141;-48
2023/04/04 08:13:07;;;;;;;1.77;1.00;;;;;;;6.43;52.65;102682.63;5066582;28;20186;-49
2023/04/04 08:15:33;;;;;;;2.03;0.82;;;;;;;6.98;52.47;102682.16;5051753;28;20868;-47
2023/04/04 08:17:59;;;;;;;4.47;1.05;;;;;;;6.72;51.25;102666.88;5057041;28;20290;-48
2023/04/04 08:20:25;;;;;;;2.33;0.90;;;;;;;5.95;51.49;102641.38;5059347;28;20639;-47
2023/04/04 08:22:50;;;;;;;1.10;0.80;;;;;;;6.30;51.21;102654.13;5057016;28;20241;-48
2023/04/04 08:25:16;;;;;;;1.67;0.80;;;;;;;6.46;51.58;102660.44;5056356;28;20177;-45
2023/04/04 08:27:43;;;;;;;2.33;1.00;;;;;;;6.66;50.89;102657.94;5063317;28;20646;-44
2023/04/04 08:30:11;;;;;;;2.78;1.38;;;;;;;6.58;50.71;102653.47;5054450;28;20269;-46
2023/04/04 08:32:37;;;;;;;4.22;1.23;;;;;;;6.60;50.90;102651.69;5051433;28;20171;-47
2023/04/04 08:35:03;;;;;;;2.20;1.08;;;;;;;6.67;49.77;102641.97;5053366;28;20183;-46
2023/04/04 08:37:29;;;;;;;3.55;1.00;;;;;;;7.00;49.16;102630.63;5056126;28;20713;-45
2023/04/04 08:39:55;;;;;;;2.05;1.02;;;;;;;7.20;49.43;102633.41;5057895;28;20166;-48
2023/04/04 08:42:22;;;;;;;3.97;1.20;;;;;;;7.42;48.26;102629.06;5051479;28;20634;-45
2023/04/04 08:44:51;;;;;;;1.55;0.82;;;;;;;7.49;48.55;102621.06;5037951;28;20194;-48
2023/04/04 08:47:17;;;;;;;1.67;1.10;;;;;;;6.64;48.21;102614.41;5057887;28;20214;-48
2023/04/04 08:49:45;;;;;;;3.55;1.10;;;;;;;6.79;48.79;102619.84;5056202;28;20199;-46
2023/04/04 08:52:11;;;;;;;2.22;1.00;;;;;;;7.03;48.49;102619.09;5053261;28;20567;-49
2023/04/04 08:54:39;;;;;;;2.70;1.38;;;;;;;6.64;48.19;102617.09;5053517;28;20187;-49
2023/04/04 08:57:07;;;;;;;1.17;0.90;;;;;;;6.42;47.93;102608.06;5057458;28;20202;-49
2023/04/04 08:59:32;;;;;;;1.15;0.77;;;;;;;6.57;47.46;102601.06;5054490;28;20194;-47
2023/04/04 09:02:12;;;;;;;2.03;0.75;;;;;;;5.94;47.03;102583.66;5051223;28;20183;-45
2023/04/04 09:04:40;;;;;;;1.33;0.82;;;;;;;6.10;47.06;102575.00;5051000;28;20182;-46
2023/04/04 09:07:05;;;;;;;2.17;1.20;;;;;;;6.19;46.41;102568.84;5051122;28;20192;-49
2023/04/04 09:09:33;;;;;;;1.67;0.90;;;;;;;6.05;48.06;102589.13;5048957;28;20732;-45
2023/04/04 09:12:00;;;;;;;2.25;0.80;;;;;;;6.02;48.46;102594.41;5051308;28;20665;-47
2023/04/04 09:14:27;;;;;;;3.10;1.00;;;;;;;5.83;48.58;102601.28;5049365;28;20187;-49
2023/04/04 09:16:53;;;;;;;1.38;1.00;;;;;;;5.85;48.88;102602.19;5051387;28;20195;-47
2023/04/04 09:19:18;;;;;;;3.17;1.20;;;;;;;6.49;48.50;102607.22;5049499;28;20159;-48
2023/04/04 09:21:48;;;;;;;2.38;1.13;;;;;;;7.06;48.11;102602.22;5049348;28;20182;-49
2023/04/04 09:24:14;;;;;;;1.25;1.15;;;;;;;6.79;48.51;102587.88;5049321;28;20566;-46
2023/04/04 09:26:47;;;;;;;3.75;1.15;;;;;;;6.62;48.46;102602.88;5050908;28;20191;-51
2023/04/04 09:29:16;;;;;;;4.05;1.63;;;;;;;7.07;47.45;102596.91;5051072;28;20572;-47
2023/04/04 09:31:45;;;;;;;3.58;1.35;;;;;;;6.90;47.66;102594.16;5051611;28;20172;-47
2023/04/04 09:34:15;;;;;;;3.28;1.00;;;;;;;6.24;47.92;102590.16;5051014;28;20210;-50
2023/04/04 09:36:41;;;;;;;2.08;1.25;;;;;;;6.54;47.87;102595.72;5051251;28;20207;-50
2023/04/04 09:39:07;;;;;;;3.83;1.10;;;;;;;6.95;47.62;102605.75;5050855;28;20595;-45
2023/04/04 09:41:33;;;;;;;2.70;1.23;;;;;;;6.43;47.07;102584.13;5053863;28;20585;-45
2023/04/04 09:43:59;;;;;;;4.57;1.50;;;;;;;6.57;47.06;102586.84;5062898;28;20187;-47
2023/04/04 09:46:26;;;;;;;1.65;1.20;;;;;;;7.34;47.65;102608.56;5064333;28;20723;-46
2023/04/04 09:48:54;;;;;;;1.88;0.88;;;;;;;7.52;46.62;102592.66;5051433;28;20281;-47
2023/04/04 09:51:20;;;;;;;5.57;1.40;;;;;;;7.32;46.01;102565.91;5055102;28;20656;-45
2023/04/04 09:53:50;;;;;;;1.67;0.98;;;;;;;7.22;45.36;102558.78;5061203;28;20269;-45
2023/04/04 09:56:16;;;;;;;2.10;1.15;;;;;;;7.01;45.08;102552.47;5059735;28;20257;-47
2023/04/04 09:58:46;;;;;;;2.10;1.10;;;;;;;7.31;45.60;102572.13;5055328;28;20179;-45
2023/04/04 10:01:12;;;;;;;1.20;0.82;;;;;;;7.86;45.02;102566.03;5063511;28;20185;-45
2023/04/04 10:03:38;;;;;;;3.15;0.98;;;;;;;7.69;45.60;102552.66;5052837;28;20516;-47
2023/04/04 10:06:11;;;;;;;2.03;1.10;;;;;;;7.76;44.92;102556.22;5053246;28;20187;-45
2023/04/04 10:08:41;;;;;;;3.17;1.20;;;;;;;7.23;44.80;102544.53;5034897;28;20199;-47
2023/04/04 10:11:08;;;;;;;3.13;1.00;;;;;;;6.88;44.74;102537.31;5057551;28;20527;-44
2023/04/04 10:13:35;;;;;;;2.20;1.00;;;;;;;7.13;44.79;102540.97;5057025;28;20186;-45
2023/04/04 10:16:03;;;;;;;2.53;1.00;;;;;;;6.63;44.95;102532.75;5051299;28;20258;-46
2023/04/04 10:18:33;;;;;;;2.08;0.98;;;;;;;6.81;45.73;102554.16;5050519;28;20191;-51
2023/04/04 10:21:08;;;;;;;1.52;1.20;;;;;;;6.67;46.52;102563.81;5060190;28;20231;-48
2023/04/04 10:23:35;;;;;;;1.55;1.08;;;;;;;7.14;45.71;102564.06;5055006;28;20613;-47
2023/04/04 10:26:00;;;;;;;2.85;0.98;;;;;;;7.06;45.96;102556.91;5052221;28;20194;-49
2023/04/04 10:28:27;;;;;;;4.03;1.02;;;;;;;6.64;45.79;102551.38;5052135;28;20196;-49
2023/04/04 10:31:04;;;;;;;2.05;1.02;;;;;;;6.72;47.29;102584.28;5063231;28;20190;-47
2023/04/04 10:33:41;;;;;;;2.63;1.85;;;;;;;6.62;47.42;102589.56;5053835;28;20179;-47
2023/04/04 10:36:11;;;;;;;2.17;1.10;;;;;;;7.07;45.45;102553.38;5049215;28;20179;-49
2023/04/04 10:38:47;;;;;;;6.65;1.17;;;;;;;6.75;46.91;102559.44;5052144;28;20194;-50
2023/04/04 10:41:18;;;;;;;2.65;1.33;;;;;;;6.24;47.65;102564.44;5057180;28;20265;-47
2023/04/04 10:43:46;;;;;;;1.92;1.25;;;;;;;6.48;48.46;102581.47;5056380;28;20254;-48
2023/04/04 10:46:16;;;;;;;1.88;0.93;;;;;;;7.15;47.47;102563.19;5050099;28;20218;-48
2023/04/04 10:48:43;;;;;;;7.82;1.60;;;;;;;6.85;48.59;102573.72;5055012;28;20289;-48
2023/04/04 10:51:10;;;;;;;7.72;1.45;;;;;;;6.70;49.60;102580.72;5053636;28;20190;-49
2023/04/04 10:53:38;;;;;;;3.47;1.30;;;;;;;6.74;49.88;102585.19;5052036;28;20171;-49
2023/04/04 10:56:04;;;;;;;3.50;1.75;;;;;;;6.35;49.08;102578.72;5049840;28;20197;-50
2023/04/04 10:58:30;;;;;;;5.38;1.65;;;;;;;6.50;49.56;102591.25;5049719;28;20190;-48
2023/04/04 11:00:56;;;;;;;4.10;1.10;;;;;;;6.39;48.30;102583.19;5049879;28;20175;-47
2023/04/04 11:03:24;;;;;;;5.65;1.75;;;;;;;6.55;49.46;102584.19;5049749;28;20202;-51
2023/04/04 11:05:54;;;;;;;4.47;1.67;;;;;;;6.71;49.36;102592.25;5050013;28;20176;-46
2023/04/04 11:08:25;;;;;;;2.47;1.83;;;;;;;6.57;47.58;102560.22;5050056;28;20164;-45
2023/04/04 11:10:52;;;;;;;8.85;2.72;;;;;;;6.99;48.52;102569.34;5049579;28;20168;-48
2023/04/04 11:13:28;;;;;;;8.85;2.58;;;;;;;7.08;48.18;102573.81;5064538;28;20155;-45
2023/04/04 11:16:12;;;;;;;3.05;1.33;;;;;;;6.33;47.31;102545.88;5049438;28;20255;-47
2023/04/04 11:18:38;;;;;;;4.07;1.70;;;;;;;6.77;47.65;102553.22;5065401;28;20225;-46
2023/04/04 11:21:09;;;;;;;6.07;1.77;;;;;;;6.78;47.63;102556.81;5049840;28;20700;-48
2023/04/04 11:23:47;;;;;;;3.10;1.63;;;;;;;6.67;47.16;102548.75;5049412;28;20171;-47
2023/04/04 11:26:15;;;;;;;6.25;1.85;;;;;;;6.68;47.03;102537.22;5049684;28;20562;-43